Tiempo atmosférico en la estación meteorológica de Lanaja, Huesca (380 m.)



Fecha
DESCASC
Temp. máxima en grados centígrados (hora)
DESCASC
Temp. mínima en grados centígrados (hora)
DESCASC
Temp. media en grados centígrados
DESCASC
Racha de viento máxima en m/sg (hora)
DESCASC
Velocidad máxima media en intervalos de 10 minutos(hora)
DESCASC
Precipitaciones diarias en mm
DESCASC
Precipitaciones de 00:00 a 06:00 en mm
DESCASC
Precipitaciones de 06:00 a 12:00 en mm
DESCASC
Precipitaciones de 12:00 a 18:00 en mm
DESCASC
Precipitaciones de 18:00 a 24:00 en mm
DESCASC
16-04-2019 19.8 (16:10) 7.4 (03:30) 13.6 9.72 (21:50) 6.67 (21:50) 0 0 0 0 0
15-04-2019 18.2 (14:50) 9.2 (08:00) 13.7 13.06 (16:10) 8.33 (20:00) 1.6 0 0 0 1.6
14-04-2019 23.2 (16:50) 11 (00:00) 17.1 15.83 (15:40) 10.83 (15:20) 0 0 0 0 0
13-04-2019 22 (18:00) 2.9 (00:00) 12.5 8.89 (18:20) 6.39 (23:10) 0 0 0 0 0
12-04-2019 19.3 (15:50) 6 (00:00) 12.6 11.11 (17:30) 7.5 (17:30) 0 0 0 0 0
11-04-2019 16.4 (15:20) 6.3 (00:00) 11.3 18.33 (16:40) 12.5 (16:50) 0 0 0 0 0
10-04-2019 17.2 (16:00) 6 (00:00) 11.6 11.39 (19:10) 8.06 (17:50) 0 0 0 0 0
09-04-2019 16.8 (16:20) 7.6 (00:00) 12.2 13.33 (12:50) 8.61 (12:30) 1.6 1.6 0 0 0
08-04-2019 16.9 (17:00) 6.1 (00:00) 11.5 13.06 (18:50) 8.33 (18:50) 2.4 0.4 0.2 0 1.8
07-04-2019 14.4 (17:30) 4.7 (00:00) 9.5 15 (12:00) 10.83 (11:40) 0.6 0.4 0.2 0 0
06-04-2019 14.2 (16:30) 4.4 (00:00) 9.3 12.22 (01:30) 7.78 (01:30) 3.6 3.6 0 0 0
05-04-2019 13.2 (15:00) 4.9 (00:00) 9 9.17 (16:40) 5.56 (16:40) 9.8 0 1.4 2.8 5.6
04-04-2019 13.4 (18:20) 1.3 (00:00) 7.3 15 (11:40) 9.72 (12:00) 0 0 0 0 0
03-04-2019 13.6 (00:00) 3.9 (00:00) 8.8 16.39 (19:10) 11.94 (19:20) 0 0 0 0 0
02-04-2019 18.8 (16:10) 8.6 (00:00) 13.7 11.11 (16:50) 7.78 (16:50) 0 0 0 0 0
01-04-2019 14.6 (19:20) 7.8 (00:00) 11.2 5.28 (01:20) 4.44 (02:10) 4.5 1.2 3.1 0.2 0
31-03-2019 12 (17:00) 4.7 (00:00) 8.3 5.56 (15:10) 3.33 (15:10) 0 0 0 0 0
30-03-2019 16.9 (15:30) 3.8 (00:00) 10.3 7.5 (23:00) 4.44 (20:20) 0 0 0 0 0
29-03-2019 17.9 (16:00) 4.5 (00:00) 11.2 10.28 (16:50) 6.11 (16:50) 0 0 0 0 0
28-03-2019 17.9 (16:40) 3.1 (00:00) 10.5 6.11 (04:50) 4.72 (04:50) 0 0 0 0 0
27-03-2019 19.6 (16:50) 3.1 (00:00) 11.4 6.39 (14:20) 3.61 (05:30) 0 0 0 0 0
26-03-2019 19.9 (17:20) 3.9 (00:00) 11.9 10.28 (00:30) 8.06 (00:30) 0 0 0 0 0
25-03-2019 18.4 (14:40) 5.5 (00:00) 11.9 12.22 (21:00) 8.89 (21:00) 0 0 0 0 0
24-03-2019 23.2 (16:50) 8.1 (00:00) 15.7 6.94 (15:10) 4.44 (20:40) 0 0 0 0 0
23-03-2019 21.6 (16:50) 7.1 (00:00) 14.4 5.28 (14:00) 3.33 (23:00) 0 0 0 0 0
22-03-2019 18.7 (16:30) 4.1 (00:00) 11.4 6.39 (14:40) 3.61 (22:10) 0 0 0 0 0
21-03-2019 16.6 (16:30) 2.1 (00:00) 9.4 5.28 (15:10) 4.17 (05:40) 0 0 0 0 0
20-03-2019 15.9 (18:20) 0.6 (00:00) 8.2 7.78 (19:40) 5.28 (03:40) 0 0 0 0 0
19-03-2019 16.5 (14:40) 4.4 (00:00) 10.5 12.78 (02:10) 8.89 (02:40) 0 0 0 0 0

Gráficas

Temp. máximas Temp. mínimas Temp. medias Precipitaciones Rachas de viento máximas Velocidades máximas media en intervalos de 10 minutos

Datos horarios

Fecha y hora oficial Temperatura (ºC) Velocidad del viento (km/h) Dirección del viento Racha (km/h) Dirección de racha Precipitación (mm) Presión (hPa) Tendencia (hPa) Humedad (%)
2019-04-17 23:00:00 12.2 23 Sudeste 33 Sudeste 0 -- -- 65
2019-04-17 22:00:00 12.6 15 Sudeste 23 Sudeste 0 -- -- 68
2019-04-17 21:00:00 13.9 14 Sudeste 28 Sudeste 0 -- -- 66
2019-04-17 20:00:00 15.6 15 Sudeste 29 Sudeste 0 -- -- 59
2019-04-17 19:00:00 16.9 19 Sudeste 38 Sudeste 0 -- -- 53
2019-04-17 18:00:00 17.9 20 Sudeste 40 Sudeste 0 -- -- 51
2019-04-17 17:00:00 18.3 25 Sudeste 41 Sudeste 0 -- -- 50
2019-04-17 16:00:00 18 27 Sudeste 42 Sudeste 0 -- -- 52
2019-04-17 15:00:00 17.9 24 Sudeste 42 Sudeste 0 -- -- 52
2019-04-17 14:00:00 16.9 23 Sudeste 37 Sudeste 0 -- -- 56
2019-04-17 13:00:00 15.3 21 Sudeste 36 Sudeste 0 -- -- 60
2019-04-17 12:00:00 13.7 21 Sudeste 36 Sudeste 0 -- -- 65
2019-04-17 11:00:00 12.3 19 Sudeste 34 Sudeste 0 -- -- 73
2019-04-17 10:00:00 10.6 14 Sudeste 28 Sudeste 0 -- -- 79
2019-04-17 09:00:00 9 13 Sudeste 23 Sudeste 0 -- -- 83
2019-04-17 08:00:00 6.8 6 Sur 13 Sudeste 0 -- -- 87
2019-04-17 07:00:00 6.8 6 Sudeste 16 Sur 0 -- -- 87
2019-04-17 06:00:00 7 6 Sur 10 Sur 0 -- -- 84
2019-04-17 05:00:00 7.7 5 Sur 13 Sudeste 0 -- -- 82
2019-04-17 04:00:00 8.2 6 Sudeste 15 Sudeste 0 -- -- 82
2019-04-17 03:00:00 8.7 7 Sudeste 20 Sudeste 0 -- -- 78
2019-04-17 02:00:00 9.3 11 Sudeste 24 Sudeste 0 -- -- 72
2019-04-17 01:00:00 9.6 9 Sudeste 19 Sudeste 0 -- -- 65
2019-04-17 00:00:00 10.8 9 Sudeste 26 Sudeste 0 -- -- 56
2019-04-16 23:00:00 12.5 12 Sudeste 30 Sudeste 0 -- -- 53
2019-04-16 22:00:00 14 19 Sur 35 Sudeste 0 -- -- 50
2019-04-16 21:00:00 15.9 19 Sur 28 Sudeste 0 -- -- 56
2019-04-16 20:00:00 17.7 13 Sudeste 26 Sudeste 0 -- -- 49
2019-04-16 19:00:00 19.2 13 Sudeste 25 Sudeste 0 -- -- 44
2019-04-16 18:00:00 19.3 12 Sudeste 18 Sur 0 -- -- 44
2019-04-16 17:00:00 19.7 6 Sur 15 Sudeste 0 -- -- 42
2019-04-16 16:00:00 19.3 6 Norte 22 Este 0 -- -- 43
2019-04-16 15:00:00 19 7 Este 19 Nordeste 0 -- -- 47
2019-04-16 14:00:00 17.8 13 Nordeste 21 Nordeste 0 -- -- 49
2019-04-16 13:00:00 16.6 9 Norte 15 Norte 0 -- -- 54
2019-04-16 12:00:00 15.1 7 Norte 13 Norte 0 -- -- 60
2019-04-16 11:00:00 14 4 Este 21 Norte 0 -- -- 65
2019-04-16 10:00:00 12.8 14 Noroeste 22 Norte 0 -- -- 68
2019-04-16 09:00:00 10.7 8 Noroeste 13 Noroeste 0 -- -- 72
2019-04-16 08:00:00 8.4 10 Oeste 14 Oeste 0 -- -- 76
2019-04-16 07:00:00 8.5 10 Noroeste 14 Noroeste 0 -- -- 79
2019-04-16 06:00:00 9.1 2 Sur 10 Oeste 0 -- -- 73
2019-04-16 05:00:00 8.6 7 Sudoeste 15 Noroeste 0 -- -- 78
2019-04-16 04:00:00 8.1 13 Noroeste 15 Noroeste 0 -- -- 78
2019-04-16 03:00:00 7.7 9 Norte 13 Noroeste 0 -- -- 80
2019-04-16 02:00:00 8.7 3 Sudoeste 7 Sudeste 0 -- -- 75
2019-04-16 01:00:00 9.3 5 Sudoeste 20 Este 0 -- -- 74
2019-04-16 00:00:00 10.3 8 Sudeste 32 Este 0 -- -- 69
2019-04-15 23:00:00 11.5 19 Sudeste 35 Sudeste 0 -- -- 62
2019-04-15 22:00:00 11.8 12 Sudeste 42 Este 0 -- -- 64
2019-04-15 21:00:00 11.8 21 Norte 41 Sudeste 0.2 -- -- 73
2019-04-15 20:00:00 13 30 Sudeste 45 Sudeste 1.4 -- -- 68
2019-04-15 19:00:00 15.9 24 Sudeste 42 Este 0 -- -- 53
2019-04-15 18:00:00 16.9 23 Sudeste 44 Este 0 -- -- 52
2019-04-15 17:00:00 17.8 24 Sudeste 47 Sudeste 0 -- -- 50
2019-04-15 16:00:00 18.1 28 Sudeste 44 Sudeste 0 -- -- 49
2019-04-15 15:00:00 17.5 29 Sudeste 45 Sudeste 0 -- -- 52
2019-04-15 14:00:00 17.8 21 Este 36 Sudeste 0 -- -- 51
2019-04-15 13:00:00 17 21 Sudeste 37 Este 0 -- -- 50
2019-04-15 12:00:00 15.4 15 Este 27 Este 0 -- -- 55
2019-04-15 11:00:00 13.5 15 Sudeste 23 Sudeste 0 -- -- 62
2019-04-15 10:00:00 11.6 10 Sudeste 21 Sudeste 0 -- -- 76
2019-04-15 09:00:00 9.6 9 Sudeste 14 Sudeste 0 -- -- 88
2019-04-15 08:00:00 9.2 5 Sudeste 10 Sudeste 0 -- -- 88
2019-04-15 07:00:00 9.6 4 Este 8 Este 0 -- -- 85
2019-04-15 06:00:00 9.8 6 Sudoeste 14 Sudeste 0 -- -- 81
2019-04-15 05:00:00 10.7 9 Sudeste 15 Sudeste 0 -- -- 80
2019-04-15 04:00:00 12.1 2 Sudoeste 15 Nordeste 0 -- -- 72
2019-04-15 03:00:00 13.7 9 Oeste 14 Este 0 -- -- 68
2019-04-15 02:00:00 14.8 11 Noroeste 26 Noroeste 0 -- -- 64
2019-04-15 01:00:00 14.7 20 Noroeste 27 Noroeste 0 -- -- 65
2019-04-15 00:00:00 14.9 15 Noroeste 26 Noroeste 0 -- -- 65
2019-04-14 23:00:00 16.2 21 Noroeste 28 Noroeste 0 -- -- 60
2019-04-14 22:00:00 16.9 21 Noroeste 36 Noroeste 0 -- -- 59
2019-04-14 21:00:00 18.3 21 Noroeste 41 Noroeste 0 -- -- 53
2019-04-14 20:00:00 20.1 25 Noroeste 53 Noroeste 0 -- -- 48
2019-04-14 19:00:00 21.9 37 Noroeste 53 Noroeste 0 -- -- 42
2019-04-14 18:00:00 22.8 35 Noroeste 53 Noroeste 0 -- -- 39
2019-04-14 17:00:00 23.1 35 Noroeste 55 Noroeste 0 -- -- 37
2019-04-14 16:00:00 22.8 37 Noroeste 57 Noroeste 0 -- -- 36
2019-04-14 15:00:00 22.1 36 Noroeste 55 Noroeste 0 -- -- 37
2019-04-14 14:00:00 21.5 28 Noroeste 49 Noroeste 0 -- -- 39
2019-04-14 13:00:00 20.5 37 Noroeste 55 Noroeste 0 -- -- 38
2019-04-14 12:00:00 19.6 35 Noroeste 49 Noroeste 0 -- -- 38
2019-04-14 11:00:00 17.9 31 Noroeste 49 Noroeste 0 -- -- 35
2019-04-14 10:00:00 17 34 Noroeste 50 Noroeste 0 -- -- 35
2019-04-14 09:00:00 15 31 Noroeste 42 Oeste 0 -- -- 35
2019-04-14 08:00:00 13.3 24 Oeste 36 Oeste 0 -- -- 35
2019-04-14 07:00:00 13.3 22 Noroeste 33 Noroeste 0 -- -- 33
2019-04-14 06:00:00 12.1 20 Oeste 28 Noroeste 0 -- -- 32
2019-04-14 05:00:00 12.1 17 Oeste 24 Oeste 0 -- -- 29
2019-04-14 04:00:00 14.1 14 Oeste 22 Oeste 0 -- -- 24
2019-04-14 03:00:00 14.1 14 Oeste 19 Oeste 0 -- -- 23
2019-04-14 02:00:00 14.5 13 Oeste 22 Noroeste 0 -- -- 22
2019-04-14 01:00:00 14.7 18 Noroeste 24 Oeste 0 -- -- 21
2019-04-14 00:00:00 15 19 Noroeste 28 Noroeste 0 -- -- 19
2019-04-13 23:00:00 15.7 23 Noroeste 29 Noroeste 0 -- -- 18
2019-04-13 22:00:00 16.2 17 Oeste 27 Oeste 0 -- -- 16
2019-04-13 21:00:00 17.2 17 Oeste 22 Oeste 0 -- -- 15
2019-04-13 20:00:00 20.2 15 Oeste 27 Noroeste 0 -- -- 16
2019-04-13 19:00:00 21.6 16 Noroeste 32 Noroeste 0 -- -- 19
2019-04-13 18:00:00 22 18 Oeste 31 Oeste 0 -- -- 15
2019-04-13 17:00:00 21.1 15 Noroeste 26 Noroeste 0 -- -- 17
2019-04-13 16:00:00 21.2 14 Oeste 30 Noroeste 0 -- -- 18
2019-04-13 15:00:00 19.8 11 Noroeste 19 Noroeste 0 -- -- 24
2019-04-13 14:00:00 18 6 Este 14 Norte 0 -- -- 33
2019-04-13 13:00:00 16.3 5 Nordeste 11 Nordeste 0 -- -- 39
2019-04-13 12:00:00 14 5 Norte 12 Este 0 -- -- 49
2019-04-13 11:00:00 11.4 4 Norte 10 Noroeste 0 -- -- 55
2019-04-13 10:00:00 9 3 Nordeste 7 Nordeste 0 -- -- 62
2019-04-13 09:00:00 4.8 5 Norte 9 Norte 0 -- -- 75
2019-04-13 08:00:00 3.3 0 Calma 10 Norte 0 -- -- 76
2019-04-13 07:00:00 3.5 8 Norte 9 Norte 0 -- -- 77
2019-04-13 06:00:00 3.5 2 Sudoeste 11 Norte 0 -- -- 78
2019-04-13 05:00:00 3.7 8 Norte 13 Noroeste 0 -- -- 78
2019-04-13 04:00:00 4.6 7 Norte 19 Norte 0 -- -- 74
2019-04-13 03:00:00 4.6 12 Noroeste 20 Noroeste 0 -- -- 74
2019-04-13 02:00:00 6.4 15 Noroeste 19 Norte 0 -- -- 66
2019-04-13 01:00:00 8.2 11 Norte 19 Noroeste 0 -- -- 59
2019-04-13 00:00:00 9.5 17 Noroeste 30 Noroeste 0 -- -- 57
2019-04-12 23:00:00 10.7 22 Noroeste 33 Noroeste 0 -- -- 53
2019-04-12 22:00:00 12 22 Oeste 31 Oeste 0 -- -- 48
2019-04-12 21:00:00 13.4 16 Oeste 24 Oeste 0 -- -- 42
2019-04-12 20:00:00 16.3 20 Noroeste 36 Noroeste 0 -- -- 34
2019-04-12 19:00:00 18.1 23 Noroeste 33 Noroeste 0 -- -- 31
2019-04-12 18:00:00 18.8 25 Noroeste 40 Noroeste 0 -- -- 30
2019-04-12 17:00:00 19.3 22 Oeste 33 Oeste 0 -- -- 27
2019-04-12 16:00:00 19.2 15 Oeste 31 Noroeste 0 -- -- 28
2019-04-12 15:00:00 18.4 17 Noroeste 30 Noroeste 0 -- -- 30
2019-04-12 14:00:00 17.2 17 Oeste 32 Noroeste 0 -- -- 33
2019-04-12 13:00:00 15.7 18 Noroeste 31 Noroeste 0 -- -- 39
2019-04-12 12:00:00 14.3 19 Noroeste 28 Noroeste 0 -- -- 49
2019-04-12 11:00:00 12.5 17 Noroeste 30 Noroeste 0 -- -- 52
2019-04-12 10:00:00 10.8 21 Noroeste 32 Noroeste 0 -- -- 60
2019-04-12 09:00:00 8.3 22 Noroeste 32 Noroeste 0 -- -- 72
2019-04-12 08:00:00 6.3 23 Noroeste 31 Noroeste 0 -- -- 78
2019-04-12 07:00:00 6.2 22 Noroeste 31 Noroeste 0 -- -- 78
2019-04-12 06:00:00 6.1 22 Noroeste 31 Noroeste 0 -- -- 79
2019-04-12 05:00:00 6.3 23 Noroeste 31 Noroeste 0 -- -- 78
2019-04-12 04:00:00 6.4 22 Noroeste 32 Noroeste 0 -- -- 77
2019-04-12 03:00:00 7 24 Noroeste 35 Noroeste 0 -- -- 75
2019-04-12 02:00:00 7.1 24 Noroeste 34 Noroeste 0 -- -- 71
2019-04-12 01:00:00 7.7 23 Noroeste 37 Noroeste 0 -- -- 67
2019-04-12 00:00:00 8.3 28 Noroeste 45 Noroeste 0 -- -- 66
2019-04-11 23:00:00 9.1 30 Noroeste 44 Noroeste 0 -- -- 66
2019-04-11 22:00:00 9.9 29 Noroeste 46 Noroeste 0 -- -- 60
2019-04-11 21:00:00 11.2 33 Noroeste 49 Noroeste 0 -- -- 55
2019-04-11 20:00:00 13.1 34 Noroeste 53 Noroeste 0 -- -- 51
2019-04-11 19:00:00 14.7 35 Noroeste 59 Noroeste 0 -- -- 46
2019-04-11 18:00:00 15.7 42 Noroeste 60 Noroeste 0 -- -- 44
2019-04-11 17:00:00 15.2 43 Noroeste 66 Noroeste 0 -- -- 46
2019-04-11 16:00:00 16.2 41 Noroeste 58 Noroeste 0 -- -- 44
2019-04-11 15:00:00 16.2 39 Noroeste 55 Noroeste 0 -- -- 44
2019-04-11 14:00:00 15.8 37 Noroeste 49 Noroeste 0 -- -- 45
2019-04-11 13:00:00 14.9 30 Noroeste 48 Noroeste 0 -- -- 48
2019-04-11 12:00:00 13.4 32 Noroeste 47 Noroeste 0 -- -- 52
2019-04-11 11:00:00 11.8 30 Noroeste 49 Noroeste 0 -- -- 55
2019-04-11 10:00:00 10 32 Noroeste 47 Noroeste 0 -- -- 61
2019-04-11 09:00:00 8.3 30 Noroeste 42 Noroeste 0 -- -- 66
2019-04-11 08:00:00 6.6 27 Noroeste 37 Noroeste 0 -- -- 74
2019-04-11 07:00:00 6.4 28 Noroeste 37 Noroeste 0 -- -- 74
2019-04-11 06:00:00 6.6 26 Noroeste 38 Noroeste 0 -- -- 73
2019-04-11 05:00:00 6.7 24 Noroeste 35 Noroeste 0 -- -- 74
2019-04-11 04:00:00 7.1 24 Noroeste 32 Noroeste 0 -- -- 73
2019-04-11 03:00:00 7.5 21 Noroeste 31 Noroeste 0 -- -- 69
2019-04-11 02:00:00 7.6 22 Noroeste 30 Noroeste 0 -- -- 69
2019-04-11 01:00:00 7.8 20 Noroeste 30 Noroeste 0 -- -- 68
2019-04-11 00:00:00 8.4 20 Noroeste 30 Noroeste 0 -- -- 65
2019-04-10 23:00:00 10 24 Noroeste 35 Noroeste 0 -- -- 57
2019-04-10 22:00:00 10.7 23 Noroeste 32 Noroeste 0 -- -- 56
2019-04-10 21:00:00 12.8 22 Noroeste 32 Noroeste 0 -- -- 50
2019-04-10 20:00:00 14.7 23 Noroeste 41 Noroeste 0 -- -- 47
2019-04-10 19:00:00 15.7 27 Noroeste 40 Noroeste 0 -- -- 44
2019-04-10 18:00:00 16 27 Noroeste 39 Noroeste 0 -- -- 45
2019-04-10 17:00:00 15.7 20 Noroeste 37 Norte 0 -- -- 50
2019-04-10 16:00:00 17.2 19 Noroeste 34 Noroeste 0 -- -- 44
2019-04-10 15:00:00 16.2 13 Noroeste 24 Noroeste 0 -- -- 46
2019-04-10 14:00:00 15 17 Norte 28 Noroeste 0 -- -- 51
2019-04-10 13:00:00 14.2 18 Noroeste 32 Noroeste 0 -- -- 55
2019-04-10 12:00:00 12.4 21 Noroeste 35 Norte 0 -- -- 59
2019-04-10 11:00:00 11.4 25 Norte 38 Noroeste 0 -- -- 63
2019-04-10 10:00:00 9.9 23 Noroeste 39 Noroeste 0 -- -- 68
2019-04-10 09:00:00 9 15 Norte 29 Noroeste 0 -- -- 69
2019-04-10 08:00:00 6.1 18 Noroeste 27 Noroeste 0 -- -- 78
2019-04-10 07:00:00 6 15 Noroeste 25 Noroeste 0 -- -- 79
2019-04-10 06:00:00 6.6 19 Noroeste 31 Noroeste 0 -- -- 79
2019-04-10 05:00:00 6.4 20 Noroeste 29 Noroeste 0 -- -- 81
2019-04-10 04:00:00 6.8 17 Oeste 29 Oeste 0 -- -- 82
2019-04-10 03:00:00 7.4 17 Noroeste 24 Noroeste 0 -- -- 82
2019-04-10 02:00:00 7.6 10 Noroeste 26 Oeste 0 -- -- 81
2019-04-10 01:00:00 8.1 21 Noroeste 28 Noroeste 0 -- -- 79
2019-04-10 00:00:00 8.7 15 Noroeste 34 Oeste 0 -- -- 76
2019-04-09 23:00:00 9.7 22 Noroeste 32 Noroeste 0 -- -- 69
2019-04-09 22:00:00 10.1 22 Noroeste 43 Oeste 0 -- -- 65
2019-04-09 21:00:00 11.1 23 Oeste 35 Oeste 0 -- -- 63
2019-04-09 20:00:00 13.5 25 Oeste 40 Oeste 0 -- -- 51
2019-04-09 19:00:00 15.4 19 Oeste 30 Noroeste 0 -- -- 42
2019-04-09 18:00:00 14.3 22 Noroeste 46 Noroeste 0 -- -- 50
2019-04-09 17:00:00 13.5 22 Noroeste 33 Noroeste 0 -- -- 58
2019-04-09 16:00:00 16.4 17 Noroeste 33 Noroeste 0 -- -- 47
2019-04-09 15:00:00 16.6 19 Oeste 33 Oeste 0 -- -- 43
2019-04-09 14:00:00 15.4 21 Noroeste 34 Noroeste 0 -- -- 45
2019-04-09 13:00:00 14.4 25 Noroeste 48 Noroeste 0 -- -- 51
2019-04-09 12:00:00 13.2 26 Noroeste 39 Noroeste 0 -- -- 58
2019-04-09 11:00:00 11.8 27 Noroeste 38 Noroeste 0 -- -- 63
2019-04-09 10:00:00 10.7 23 Noroeste 31 Oeste 0 -- -- 70
2019-04-09 09:00:00 9.6 15 Oeste 31 Oeste 0 -- -- 76
2019-04-09 08:00:00 8.2 19 Oeste 30 Oeste 0 -- -- 77
2019-04-09 07:00:00 7.6 15 Oeste 22 Oeste 0 -- -- 81
2019-04-09 06:00:00 7.8 14 Noroeste 21 Noroeste 0.2 -- -- 81
2019-04-09 05:00:00 8.9 13 Oeste 40 Noroeste 0.8 -- -- 76
2019-04-09 04:00:00 9.3 12 Noroeste 34 Oeste 0.6 -- -- 77
2019-04-09 03:00:00 10.5 21 Oeste 36 Oeste 0 -- -- 78
2019-04-09 02:00:00 10.5 18 Oeste 28 Sudoeste 0 -- -- 77
2019-04-09 01:00:00 11.5 17 Oeste 25 Oeste 0 -- -- 67
2019-04-09 00:00:00 10.9 15 Oeste 22 Oeste 0 -- -- 66
2019-04-08 23:00:00 10.3 12 Oeste 22 Oeste 0.2 -- -- 74
2019-04-08 22:00:00 11.2 21 Oeste 35 Oeste 0.2 -- -- 78
2019-04-08 21:00:00 11.7 8 Sudoeste 15 Oeste 0 -- -- 71
2019-04-08 20:00:00 11.5 11 Sudoeste 21 Oeste 0.4 -- -- 77
2019-04-08 19:00:00 11.4 22 Oeste 47 Noroeste 1 -- -- 78
2019-04-08 18:00:00 15.9 11 Norte 22 Norte 0 -- -- 56
2019-04-08 17:00:00 16.9 17 Nordeste 23 Nordeste 0 -- -- 55
2019-04-08 16:00:00 15.9 6 Norte 15 Norte 0 -- -- 55
2019-04-08 15:00:00 15.2 9 Norte 20 Noroeste 0 -- -- 61
2019-04-08 14:00:00 13.9 9 Norte 18 Norte 0 -- -- 69
2019-04-08 13:00:00 13.8 5 Sudeste 12 Este 0 -- -- 68
2019-04-08 12:00:00 12 5 Nordeste 9 Nordeste 0 -- -- 72
2019-04-08 11:00:00 10.2 2 Nordeste 6 Sur 0 -- -- 78
2019-04-08 10:00:00 8.5 3 Sur 6 Sudoeste 0 -- -- 81
2019-04-08 09:00:00 7 2 Sur 8 Sur 0 -- -- 84
2019-04-08 08:00:00 6.2 5 Sur 9 Sudeste 0 -- -- 85
2019-04-08 07:00:00 6.1 6 Sur 13 Este 0.2 -- -- 86
2019-04-08 06:00:00 7.8 5 Sudeste 13 Oeste 0.4 -- -- 82
2019-04-08 05:00:00 9.1 12 Oeste 22 Oeste 0 -- -- 73
2019-04-08 04:00:00 10 19 Oeste 30 Oeste 0 -- -- 63
2019-04-08 03:00:00 9.8 17 Oeste 25 Oeste 0 -- -- 58
2019-04-08 02:00:00 9.3 14 Oeste 21 Oeste 0 -- -- 56
2019-04-08 01:00:00 9.6 2 Sudoeste 8 Oeste 0 -- -- 63
2019-04-08 00:00:00 9.3 5 Sudoeste 12 Oeste 0 -- -- 61
2019-04-07 23:00:00 10.2 7 Oeste 14 Oeste 0 -- -- 56
2019-04-07 22:00:00 10.4 12 Oeste 14 Oeste 0 -- -- 54
2019-04-07 21:00:00 10.6 12 Oeste 17 Oeste 0 -- -- 53
2019-04-07 20:00:00 12.5 11 Noroeste 37 Noroeste 0 -- -- 49
2019-04-07 19:00:00 13.9 24 Noroeste 41 Noroeste 0 -- -- 42
2019-04-07 18:00:00 14.3 29 Noroeste 42 Noroeste 0 -- -- 43
2019-04-07 17:00:00 14.3 28 Noroeste 44 Noroeste 0 -- -- 46
2019-04-07 16:00:00 13.5 29 Noroeste 45 Noroeste 0 -- -- 48
2019-04-07 15:00:00 13.3 33 Noroeste 51 Noroeste 0 -- -- 49
2019-04-07 14:00:00 12.4 32 Noroeste 51 Noroeste 0 -- -- 52
2019-04-07 13:00:00 11.6 32 Noroeste 53 Noroeste 0 -- -- 55
2019-04-07 12:00:00 10.4 35 Noroeste 54 Noroeste 0 -- -- 60
2019-04-07 11:00:00 9.3 36 Noroeste 48 Noroeste 0 -- -- 64
2019-04-07 10:00:00 8.2 38 Noroeste 50 Noroeste 0 -- -- 67
2019-04-07 09:00:00 6.8 27 Noroeste 40 Noroeste 0.2 -- -- 80
2019-04-07 08:00:00 4.7 16 Noroeste 24 Noroeste 0 -- -- 87
2019-04-07 07:00:00 5.5 17 Noroeste 23 Noroeste 0 -- -- 88
2019-04-07 06:00:00 5.3 9 Noroeste 13 Noroeste 0 -- -- 87
2019-04-07 05:00:00 5.6 9 Noroeste 13 Noroeste 0.4 -- -- 89
2019-04-07 04:00:00 5.9 6 Norte 13 Oeste 0 -- -- 84
2019-04-07 03:00:00 5.8 6 Norte 13 Noroeste 0 -- -- 86
2019-04-07 02:00:00 6.1 5 Norte 10 Noroeste 0 -- -- 85
2019-04-07 01:00:00 6.6 3 Sudeste 13 Sudeste 0 -- -- 84
2019-04-07 00:00:00 6.8 8 Este 13 Este 0 -- -- 81
2019-04-06 23:00:00 7.9 4 Este 9 Sudeste 0 -- -- 70
2019-04-06 22:00:00 8.2 5 Sudoeste 12 Sudoeste 0 -- -- 69
2019-04-06 21:00:00 8 6 Este 30 Oeste 0 -- -- 71
2019-04-06 20:00:00 8.9 19 Oeste 31 Oeste 0 -- -- 64
2019-04-06 19:00:00 11 11 Nordeste 19 Nordeste 0 -- -- 61
2019-04-06 18:00:00 13.4 13 Oeste 28 Oeste 0 -- -- 42
2019-04-06 17:00:00 13.7 15 Oeste 32 Oeste 0 -- -- 44
2019-04-06 16:00:00 13.9 21 Oeste 34 Sudoeste 0 -- -- 43
2019-04-06 15:00:00 13.4 18 Oeste 35 Oeste 0 -- -- 43
2019-04-06 14:00:00 11.4 17 Oeste 27 Oeste 0 -- -- 50
2019-04-06 13:00:00 11.2 14 Noroeste 30 Noroeste 0 -- -- 53
2019-04-06 12:00:00 10 16 Noroeste 28 Oeste 0 -- -- 60
2019-04-06 11:00:00 8.1 21 Oeste 32 Noroeste 0 -- -- 68
2019-04-06 10:00:00 6.8 17 Noroeste 25 Oeste 0 -- -- 75
2019-04-06 09:00:00 5.4 12 Noroeste 17 Noroeste 0 -- -- 82
2019-04-06 08:00:00 4.9 10 Noroeste 18 Oeste 0 -- -- 85
2019-04-06 07:00:00 5.3 14 Oeste 25 Oeste 0 -- -- 83
2019-04-06 06:00:00 5.4 12 Oeste 27 Oeste 0 -- -- 83
2019-04-06 05:00:00 5.5 16 Oeste 23 Oeste 0 -- -- 85
2019-04-06 04:00:00 5.2 11 Oeste 26 Oeste 0 -- -- 88
2019-04-06 03:00:00 4.7 13 Oeste 31 Noroeste 0 -- -- 89
2019-04-06 02:00:00 4.5 23 Noroeste 44 Noroeste 2.6 -- -- 87
2019-04-06 01:00:00 5.1 21 Oeste 40 Oeste 1 -- -- 88
2019-04-06 00:00:00 7 12 Sur 27 Sudoeste 3.6 -- -- 89
2019-04-05 23:00:00 7.1 10 Oeste 14 Oeste 0.2 -- -- 89
2019-04-05 22:00:00 6.9 5 Noroeste 10 Noroeste 0 -- -- 91
2019-04-05 21:00:00 7.1 6 Norte 11 Nordeste 0 -- -- 91
2019-04-05 20:00:00 7.3 9 Nordeste 18 Norte 0.2 -- -- 90
2019-04-05 19:00:00 7.3 12 Norte 19 Nordeste 1.6 -- -- 91
2019-04-05 18:00:00 7.9 16 Norte 24 Norte 1.2 -- -- 86
2019-04-05 17:00:00 9 15 Oeste 33 Sudoeste 1.6 -- -- 84
2019-04-05 16:00:00 12.7 13 Este 27 Este 0 -- -- 58
2019-04-05 15:00:00 13.2 12 Sudeste 22 Sudeste 0 -- -- 57
2019-04-05 14:00:00 11.8 11 Este 22 Este 0 -- -- 66
2019-04-05 13:00:00 10.2 12 Sur 22 Sudeste 0 -- -- 72
2019-04-05 12:00:00 8.8 13 Sudeste 21 Sudeste 0 -- -- 78
2019-04-05 11:00:00 7 8 Este 12 Este 0.2 -- -- 80
2019-04-05 10:00:00 5.5 3 Sudoeste 8 Sudeste 0.6 -- -- 82
2019-04-05 09:00:00 5.2 5 Sur 11 Sudeste 0 -- -- 79
2019-04-05 08:00:00 4.9 4 Sudoeste 14 Oeste 0.6 -- -- 79
2019-04-05 07:00:00 5.2 7 Sudoeste 14 Sudeste 0 -- -- 74
2019-04-05 06:00:00 5.4 8 Sudoeste 17 Sudeste 0 -- -- 69
2019-04-05 05:00:00 5.2 6 Sudeste 13 Sudeste 0 -- -- 68
2019-04-05 04:00:00 5.2 5 Sudoeste 11 Sudeste 0 -- -- 64
2019-04-05 03:00:00 5.5 5 Sudeste 11 Sudeste 0 -- -- 59
2019-04-05 02:00:00 6 8 Sudeste 15 Sudeste 0 -- -- 53
2019-04-05 01:00:00 7.7 12 Sudeste 23 Sur 0 -- -- 46
2019-04-05 00:00:00 7.8 8 Sur 13 Sur 0 -- -- 45
2019-04-04 23:00:00 8.2 4 Sur 11 Sudeste 0 -- -- 44
2019-04-04 22:00:00 8.8 4 Sur 12 Sur 0 -- -- 43
2019-04-04 21:00:00 10.3 10 Este 17 Este 0 -- -- 34
2019-04-04 20:00:00 11.3 9 Este 14 Este 0 -- -- 33
2019-04-04 19:00:00 12.4 8 Nordeste 19 Oeste 0 -- -- 30
2019-04-04 18:00:00 12.9 9 Noroeste 27 Noroeste 0 -- -- 30
2019-04-04 17:00:00 12.5 20 Noroeste 41 Noroeste 0 -- -- 32
2019-04-04 16:00:00 12.4 18 Noroeste 42 Oeste 0 -- -- 33
2019-04-04 15:00:00 11.8 22 Noroeste 42 Oeste 0 -- -- 36
2019-04-04 14:00:00 10.6 27 Noroeste 47 Noroeste 0 -- -- 38
2019-04-04 13:00:00 9.7 29 Noroeste 45 Noroeste 0 -- -- 40
2019-04-04 12:00:00 8.3 35 Noroeste 54 Noroeste 0 -- -- 46
2019-04-04 11:00:00 7.4 24 Noroeste 42 Noroeste 0 -- -- 51
2019-04-04 10:00:00 5.5 26 Noroeste 43 Noroeste 0 -- -- 58
2019-04-04 09:00:00 4 33 Noroeste 44 Noroeste 0 -- -- 64
2019-04-04 08:00:00 2.3 31 Noroeste 41 Noroeste 0 -- -- 68
2019-04-04 07:00:00 2.1 24 Noroeste 41 Noroeste 0 -- -- 70
2019-04-04 06:00:00 2.4 27 Noroeste 38 Noroeste 0 -- -- 69
2019-04-04 05:00:00 1.3 16 Noroeste 29 Oeste 0 -- -- 73
2019-04-04 04:00:00 2 17 Oeste 28 Oeste 0 -- -- 68
2019-04-04 03:00:00 2.5 21 Noroeste 31 Noroeste 0 -- -- 66
2019-04-04 02:00:00 3.1 26 Noroeste 38 Noroeste 0 -- -- 63
2019-04-04 01:00:00 3.2 23 Noroeste 32 Noroeste 0 -- -- 68
2019-04-04 00:00:00 4 24 Noroeste 32 Noroeste 0 -- -- 70
2019-04-03 23:00:00 5.1 20 Noroeste 33 Noroeste 0 -- -- 71
2019-04-03 22:00:00 5.6 21 Noroeste 34 Oeste 0 -- -- 71
2019-04-03 21:00:00 6.8 22 Oeste 38 Noroeste 0 -- -- 64
2019-04-03 20:00:00 7.3 32 Noroeste 59 Noroeste 0 -- -- 60
2019-04-03 19:00:00 9.5 33 Noroeste 49 Noroeste 0 -- -- 55
2019-04-03 18:00:00 10.5 30 Noroeste 42 Noroeste 0 -- -- 52
2019-04-03 17:00:00 10.2 18 Noroeste 35 Noroeste 0 -- -- 51
2019-04-03 16:00:00 9.9 27 Noroeste 37 Noroeste 0 -- -- 53
2019-04-03 15:00:00 8.9 28 Noroeste 40 Noroeste 0 -- -- 57
2019-04-03 14:00:00 9.9 24 Noroeste 34 Noroeste 0 -- -- 59
2019-04-03 13:00:00 10.9 18 Noroeste 33 Noroeste 0 -- -- 57
2019-04-03 12:00:00 11.8 17 Noroeste 31 Noroeste 0 -- -- 59
2019-04-03 11:00:00 11.8 20 Noroeste 32 Noroeste 0 -- -- 60
2019-04-03 10:00:00 10.7 21 Noroeste 28 Noroeste 0 -- -- 63
2019-04-03 09:00:00 8.5 14 Oeste 21 Noroeste 0 -- -- 74
2019-04-03 08:00:00 7.2 7 Noroeste 22 Noroeste 0 -- -- 78
2019-04-03 07:00:00 8.2 13 Oeste 25 Oeste 0 -- -- 73
2019-04-03 06:00:00 7.8 13 Noroeste 22 Oeste 0 -- -- 75
2019-04-03 05:00:00 7.7 12 Noroeste 15 Noroeste 0 -- -- 77
2019-04-03 04:00:00 8.9 9 Noroeste 15 Noroeste 0 -- -- 77
2019-04-03 03:00:00 11.1 9 Oeste 19 Oeste 0 -- -- 71
2019-04-03 02:00:00 11.3 14 Oeste 21 Noroeste 0 -- -- 70
2019-04-03 01:00:00 12.9 14 Oeste 21 Oeste 0 -- -- 67
2019-04-03 00:00:00 13.6 14 Oeste 23 Oeste 0 -- -- 62
2019-04-02 23:00:00 13.4 16 Oeste 22 Oeste 0 -- -- 61
2019-04-02 22:00:00 14.3 14 Oeste 20 Oeste 0 -- -- 57
2019-04-02 21:00:00 14.6 16 Oeste 25 Oeste 0 -- -- 55
2019-04-02 20:00:00 16.3 17 Oeste 31 Noroeste 0 -- -- 43
2019-04-02 19:00:00 17.9 23 Noroeste 37 Noroeste 0 -- -- 36
2019-04-02 18:00:00 18.7 24 Noroeste 39 Oeste 0 -- -- 36
2019-04-02 17:00:00 18.6 21 Noroeste 40 Noroeste 0 -- -- 34
2019-04-02 16:00:00 18.4 16 Noroeste 33 Noroeste 0 -- -- 46
2019-04-02 15:00:00 18 20 Noroeste 30 Noroeste 0 -- -- 48
2019-04-02 14:00:00 16.8 14 Noroeste 30 Noroeste 0 -- -- 55
2019-04-02 13:00:00 16.4 16 Noroeste 24 Noroeste 0 -- -- 56
2019-04-02 12:00:00 15 13 Noroeste 26 Noroeste 0 -- -- 66
2019-04-02 11:00:00 13.8 18 Noroeste 24 Noroeste 0 -- -- 76
2019-04-02 10:00:00 12.1 9 Noroeste 14 Noroeste 0 -- -- 82
2019-04-02 09:00:00 9 11 Noroeste 14 Noroeste 0 -- -- 89
2019-04-02 08:00:00 9.4 11 Noroeste 13 Noroeste 0 -- -- 86
2019-04-02 07:00:00 8.8 9 Noroeste 11 Noroeste 0 -- -- 87
2019-04-02 06:00:00 9.7 3 Sudoeste 10 Noroeste 0 -- -- 79
2019-04-02 05:00:00 9.9 4 Noroeste 7 Noroeste 0 -- -- 78
2019-04-02 04:00:00 10.2 0 Calma 8 Noroeste 0 -- -- 82
2019-04-02 03:00:00 10.3 7 Noroeste 10 Noroeste 0 -- -- 83
2019-04-02 02:00:00 10.7 7 Noroeste 12 Noroeste 0 -- -- 82
2019-04-02 01:00:00 10.8 3 Oeste 6 Oeste 0 -- -- 82
2019-04-02 00:00:00 10.6 0 Calma 6 Noroeste 0 -- -- 81
2019-04-01 23:00:00 10.9 3 Sudoeste 7 Este 0 -- -- 82
2019-04-01 22:00:00 11.1 6 Nordeste 8 Este 0 -- -- 84
2019-04-01 21:00:00 12.6 8 Este 10 Este 0 -- -- 76
2019-04-01 20:00:00 13.5 8 Este 12 Sudeste 0 -- -- 69
2019-04-01 19:00:00 14.1 5 Este 10 Este 0 -- -- 71
2019-04-01 18:00:00 14.1 4 Sur 13 Sudeste 0 -- -- 71
2019-04-01 17:00:00 14.1 8 Sur 15 Sur 0 -- -- 72
2019-04-01 16:00:00 13.2 5 Sudeste 10 Sudeste 0 -- -- 73
2019-04-01 15:00:00 12.3 0 Calma 8 Oeste 0 -- -- 78
2019-04-01 14:00:00 10.8 5 Sudeste 10 Sudeste 0.2 -- -- 80
2019-04-01 13:00:00 10.3 2 Sudeste 8 Este 0 -- -- 78
2019-04-01 12:00:00 9.2 5 Nordeste 10 Nordeste 0.8 -- -- 81
2019-04-01 11:00:00 8.7 7 Nordeste 9 Nordeste -- -- -- 89
2019-04-01 10:00:00 8.5 8 Norte 9 Noroeste 0.8 -- -- 91
2019-04-01 09:00:00 8.2 8 Noroeste 11 Noroeste 0.4 -- -- 90
2019-04-01 08:00:00 8 7 Noroeste 9 Noroeste 0.2 -- -- 91
2019-04-01 07:00:00 8 3 Oeste 6 Noroeste 0.4 -- -- 91
2019-04-01 06:00:00 7.9 0 Calma 9 Norte 0.2 -- -- 90
2019-04-01 05:00:00 7.8 8 Norte 12 Norte 0.2 -- -- 90
2019-04-01 04:00:00 8.1 7 Norte 12 Noroeste 0 -- -- 90
2019-04-01 03:00:00 8.4 10 Noroeste 18 Noroeste 0 -- -- 88
2019-04-01 02:00:00 8.6 15 Noroeste 19 Oeste 0.2 -- -- 86
2019-04-01 01:00:00 8.9 12 Oeste 17 Oeste 0.6 -- -- 85
2019-04-01 00:00:00 9.4 12 Oeste 14 Noroeste 0 -- -- 81
2019-03-31 23:00:00 9.9 10 Noroeste 12 Noroeste 0 -- -- 70
2019-03-31 22:00:00 10.2 8 Noroeste 9 Noroeste 0 -- -- 66
2019-03-31 21:00:00 10.9 3 Nordeste 8 Nordeste 0 -- -- 63
2019-03-31 20:00:00 11.6 5 Este 8 Este 0 -- -- 58
2019-03-31 19:00:00 11.9 6 Sudeste 9 Sudeste 0 -- -- 57
2019-03-31 18:00:00 12 5 Sudeste 11 Sur 0 -- -- 56
2019-03-31 17:00:00 12 6 Sudeste 15 Sudeste 0 -- -- 59
2019-03-31 16:00:00 11.7 10 Sur 20 Sur 0 -- -- 63
2019-03-31 15:00:00 11.5 11 Sudeste 18 Sudeste 0 -- -- 64
2019-03-31 14:00:00 10.4 8 Sur 15 Sudeste 0 -- -- 69
2019-03-31 13:00:00 9.9 5 Sur 11 Sur 0 -- -- 71
2019-03-31 12:00:00 8.7 2 Sudeste 9 Este 0 -- -- 77
2019-03-31 11:00:00 6.9 4 Norte 9 Nordeste 0 -- -- 84
2019-03-31 10:00:00 5.9 5 Norte 7 Nordeste 0 -- -- 84
2019-03-31 09:00:00 6 0 Calma 4 Sudoeste 0 -- -- 83
2019-03-31 08:00:00 4.8 0 Calma 5 Sur 0 -- -- 85
2019-03-31 07:00:00 5 4 Sudoeste 7 Sudoeste 0 -- -- 84
2019-03-31 06:00:00 5.5 5 Sudoeste 6 Sudoeste 0 -- -- 85
2019-03-31 05:00:00 5.8 2 Sudoeste 9 Sudeste 0 -- -- 84
2019-03-31 03:00:00 6 3 Sudoeste 9 Sudoeste 0 -- -- 83
2019-03-31 01:00:00 6.7 4 Sudoeste 17 Este 0 -- -- 79
2019-03-31 00:00:00 7.5 9 Este 19 Sudeste 0 -- -- 78
2019-03-30 23:00:00 9.2 15 Sudeste 27 Sudeste 0 -- -- 70
2019-03-30 22:00:00 10.1 8 Sur 18 Sur 0 -- -- 62
2019-03-30 21:00:00 11.1 14 Sur 23 Sur 0 -- -- 55
2019-03-30 20:00:00 13.8 11 Este 18 Este 0 -- -- 40
2019-03-30 19:00:00 15.2 12 Este 19 Este 0 -- -- 37
2019-03-30 18:00:00 16.6 11 Este 21 Este 0 -- -- 32
2019-03-30 17:00:00 16.6 12 Este 24 Este 0 -- -- 32
2019-03-30 16:00:00 16.9 10 Sudeste 25 Sudeste 0 -- -- 35
2019-03-30 15:00:00 16.7 11 Sudeste 26 Sur 0 -- -- 35
2019-03-30 14:00:00 15.6 11 Sudeste 23 Sur 0 -- -- 38
2019-03-30 13:00:00 14.5 13 Sudeste 23 Sudeste 0 -- -- 44
2019-03-30 12:00:00 13.4 10 Sudeste 20 Sur 0 -- -- 52
2019-03-30 11:00:00 11.7 9 Sudeste 17 Sur 0 -- -- 59
2019-03-30 10:00:00 9.4 6 Sudeste 13 Este 0 -- -- 64
2019-03-30 09:00:00 7.8 6 Sudeste 11 Sudeste 0 -- -- 66
2019-03-30 08:00:00 5.5 5 Sudoeste 7 Sudoeste 0 -- -- 72
2019-03-30 07:00:00 3.8 3 Sudoeste 6 Sudoeste 0 -- -- 76
2019-03-30 06:00:00 4.5 4 Sudoeste 6 Sudoeste 0 -- -- 75
2019-03-30 05:00:00 4.8 4 Sudoeste 8 Oeste 0 -- -- 76
2019-03-30 04:00:00 5.2 4 Sudoeste 10 Sudeste 0 -- -- 70
2019-03-30 03:00:00 5.2 0 Calma 11 Sudeste 0 -- -- 69
2019-03-30 02:00:00 6 6 Sudeste 10 Sudeste 0 -- -- 66
2019-03-30 01:00:00 6.6 5 Sur 10 Sudeste 0 -- -- 61
2019-03-30 00:00:00 7.2 8 Sudeste 25 Sudeste 0 -- -- 58
2019-03-29 23:00:00 8.9 13 Sudeste 21 Sudeste 0 -- -- 51
2019-03-29 22:00:00 10.3 11 Sudeste 24 Sudeste 0 -- -- 49
2019-03-29 21:00:00 11.6 18 Sur 29 Sur 0 -- -- 47
2019-03-29 20:00:00 12.9 20 Sur 27 Sur 0 -- -- 47
2019-03-29 19:00:00 15.3 17 Sur 27 Sur 0 -- -- 39
2019-03-29 18:00:00 16.6 18 Sudeste 35 Sudeste 0 -- -- 36
2019-03-29 17:00:00 17.2 20 Sudeste 37 Sudeste 0 -- -- 34
2019-03-29 16:00:00 17.9 13 Sudeste 36 Sudeste 0 -- -- 32
2019-03-29 15:00:00 17.5 15 Sudeste 30 Sudeste 0 -- -- 30
2019-03-29 14:00:00 16.8 14 Sudeste 32 Sudeste 0 -- -- 31
2019-03-29 13:00:00 16.3 16 Sudeste 27 Sudeste 0 -- -- 34
2019-03-29 12:00:00 14.5 14 Sudeste 24 Este 0 -- -- 39
2019-03-29 11:00:00 12.6 13 Sudeste 21 Sudeste 0 -- -- 46
2019-03-29 10:00:00 10.3 12 Sudeste 19 Sudeste 0 -- -- 50
2019-03-29 09:00:00 8.9 9 Sudeste 14 Sudeste 0 -- -- 57
2019-03-29 08:00:00 6.7 5 Sudoeste 8 Sudoeste 0 -- -- 63
2019-03-29 07:00:00 4.6 5 Sudoeste 9 Sudoeste 0 -- -- 67
2019-03-29 06:00:00 4.5 6 Sudoeste 8 Sudoeste 0 -- -- 66
2019-03-29 05:00:00 5 6 Sudoeste 8 Sudoeste 0 -- -- 63
2019-03-29 04:00:00 5.1 4 Noroeste 8 Norte 0 -- -- 63
2019-03-29 03:00:00 6.1 0 Calma 10 Sudeste 0 -- -- 58
2019-03-29 02:00:00 6.5 4 Sur 8 Sur 0 -- -- 57
2019-03-29 01:00:00 7.4 5 Sur 11 Este 0 -- -- 55
2019-03-29 00:00:00 8.4 9 Sudeste 18 Este 0 -- -- 53
2019-03-28 23:00:00 10.3 8 Sudeste 15 Sudeste 0 -- -- 43
2019-03-28 22:00:00 10.6 8 Sur 13 Sur 0 -- -- 47
2019-03-28 21:00:00 12.4 3 Sudoeste 9 Sudoeste 0 -- -- 48
2019-03-28 20:00:00 14.7 6 Sudeste 13 Este 0 -- -- 45
2019-03-28 19:00:00 16.1 7 Nordeste 13 Nordeste 0 -- -- 40
2019-03-28 18:00:00 17.4 8 Nordeste 13 Nordeste 0 -- -- 38
2019-03-28 17:00:00 17.5 8 Nordeste 15 Nordeste 0 -- -- 37
2019-03-28 16:00:00 17.5 6 Este 15 Noroeste 0 -- -- 39
2019-03-28 15:00:00 16.8 6 Norte 14 Sudoeste 0 -- -- 41
2019-03-28 14:00:00 15.2 8 Norte 17 Nordeste 0 -- -- 45
2019-03-28 13:00:00 13.9 6 Noroeste 13 Noroeste 0 -- -- 48
2019-03-28 12:00:00 12.2 7 Nordeste 14 Nordeste 0 -- -- 51
2019-03-28 11:00:00 10.8 4 Nordeste 12 Este 0 -- -- 56
2019-03-28 10:00:00 9.1 5 Nordeste 13 Nordeste 0 -- -- 64
2019-03-28 09:00:00 7.2 9 Norte 14 Noroeste 0 -- -- 69
2019-03-28 08:00:00 5.8 10 Noroeste 14 Noroeste 0 -- -- 69
2019-03-28 07:00:00 3.9 13 Noroeste 15 Noroeste 0 -- -- 74
2019-03-28 06:00:00 4 14 Noroeste 19 Noroeste 0 -- -- 74
2019-03-28 05:00:00 3.8 15 Noroeste 22 Noroeste 0 -- -- 72
2019-03-28 04:00:00 5.1 12 Oeste 20 Oeste 0 -- -- 66
2019-03-28 03:00:00 5.4 12 Oeste 15 Oeste 0 -- -- 61
2019-03-28 02:00:00 5.7 4 Noroeste 8 Norte 0 -- -- 55
2019-03-28 01:00:00 6 4 Sudoeste 15 Norte 0 -- -- 51
2019-03-28 00:00:00 7.9 9 Norte 15 Noroeste 0 -- -- 50
2019-03-27 23:00:00 9.5 12 Noroeste 16 Noroeste 0 -- -- 43
2019-03-27 22:00:00 10.1 10 Norte 18 Nordeste 0 -- -- 39
2019-03-27 21:00:00 12.7 7 Sudoeste 14 Sudoeste 0 -- -- 32
2019-03-27 20:00:00 14.6 9 Sudoeste 15 Sudoeste 0 -- -- 29
2019-03-27 19:00:00 17.9 9 Oeste 17 Oeste 0 -- -- 22
2019-03-27 18:00:00 19 8 Noroeste 16 Noroeste 0 -- -- 21
2019-03-27 17:00:00 19.6 9 Oeste 23 Oeste 0 -- -- 22
2019-03-27 16:00:00 18.6 4 Nordeste 15 Noroeste 0 -- -- 25
2019-03-27 15:00:00 17.7 7 Norte 23 Noroeste 0 -- -- 30
2019-03-27 14:00:00 16.9 8 Noroeste 17 Noroeste 0 -- -- 33
2019-03-27 13:00:00 15.3 6 Oeste 17 Nordeste 0 -- -- 47
2019-03-27 12:00:00 13.6 5 Oeste 11 Norte 0 -- -- 50
2019-03-27 11:00:00 10.8 4 Norte 10 Norte 0 -- -- 61
2019-03-27 10:00:00 9.3 4 Norte 8 Noroeste 0 -- -- 67
2019-03-27 09:00:00 6.7 6 Noroeste 13 Noroeste 0 -- -- 75
2019-03-27 08:00:00 5 6 Noroeste 10 Noroeste 0 -- -- 79
2019-03-27 07:00:00 3.8 9 Noroeste 12 Noroeste 0 -- -- 82
2019-03-27 06:00:00 3.3 12 Noroeste 15 Noroeste 0 -- -- 83
2019-03-27 05:00:00 3.5 9 Noroeste 13 Noroeste 0 -- -- 83
2019-03-27 04:00:00 4.1 8 Noroeste 15 Noroeste 0 -- -- 83
2019-03-27 03:00:00 3.7 9 Noroeste 13 Noroeste 0 -- -- 83
2019-03-27 02:00:00 3.9 10 Noroeste 13 Noroeste 0 -- -- 82
2019-03-27 01:00:00 4.6 2 Noroeste 11 Sudeste 0 -- -- 78
2019-03-27 00:00:00 6.8 6 Este 15 Sudeste 0 -- -- 72
2019-03-26 23:00:00 8.4 10 Sudeste 17 Sudeste 0 -- -- 64
2019-03-26 22:00:00 10 8 Norte 18 Oeste 0 -- -- 39
2019-03-26 21:00:00 13.4 9 Oeste 20 Oeste 0 -- -- 27
2019-03-26 20:00:00 14.7 16 Oeste 20 Oeste 0 -- -- 24
2019-03-26 19:00:00 17.8 10 Oeste 17 Noroeste 0 -- -- 22
2019-03-26 18:00:00 19.3 13 Oeste 23 Oeste 0 -- -- 20
2019-03-26 17:00:00 19.6 13 Noroeste 26 Oeste 0 -- -- 21
2019-03-26 16:00:00 19.3 12 Noroeste 24 Noroeste 0 -- -- 20
2019-03-26 15:00:00 18.7 12 Oeste 27 Oeste 0 -- -- 22
2019-03-26 14:00:00 17.2 10 Noroeste 24 Noroeste 0 -- -- 24
2019-03-26 13:00:00 16 16 Norte 28 Norte 0 -- -- 30
2019-03-26 12:00:00 14.3 15 Noroeste 23 Noroeste 0 -- -- 37
2019-03-26 11:00:00 12.1 11 Noroeste 19 Noroeste 0 -- -- 48
2019-03-26 10:00:00 8.8 6 Norte 13 Norte 0 -- -- 58
2019-03-26 09:00:00 7 3 Sur 9 Sur 0 -- -- 64
2019-03-26 08:00:00 4.8 5 Sur 9 Noroeste 0 -- -- 68
2019-03-26 07:00:00 3.9 6 Noroeste 10 Noroeste 0 -- -- 72
2019-03-26 06:00:00 4.6 6 Norte 16 Noroeste 0 -- -- 70
2019-03-26 05:00:00 5.4 14 Noroeste 22 Noroeste 0 -- -- 70
2019-03-26 04:00:00 5.6 17 Noroeste 27 Noroeste 0 -- -- 70
2019-03-26 03:00:00 6.2 19 Noroeste 30 Noroeste 0 -- -- 67
2019-03-26 02:00:00 6.8 24 Noroeste 33 Oeste 0 -- -- 64
2019-03-26 01:00:00 6.7 23 Noroeste 37 Oeste 0 -- -- 64
2019-03-26 00:00:00 7.7 24 Noroeste 35 Noroeste 0 -- -- 61
2019-03-25 23:00:00 8.5 26 Noroeste 39 Noroeste 0 -- -- 59
2019-03-25 22:00:00 9 27 Noroeste 39 Oeste 0 -- -- 58
2019-03-25 21:00:00 10.4 32 Noroeste 44 Noroeste 0 -- -- 52
2019-03-25 20:00:00 12.1 28 Noroeste 38 Noroeste 0 -- -- 43
2019-03-25 19:00:00 14.5 25 Noroeste 41 Oeste 0 -- -- 36
2019-03-25 18:00:00 16.4 29 Oeste 42 Noroeste 0 -- -- 34
2019-03-25 17:00:00 17.7 27 Oeste 40 Noroeste 0 -- -- 30
2019-03-25 16:00:00 18.3 27 Oeste 39 Noroeste 0 -- -- 31
2019-03-25 15:00:00 18.1 25 Noroeste 40 Noroeste 0 -- -- 32
2019-03-25 14:00:00 18.2 25 Noroeste 39 Noroeste 0 -- -- 33
2019-03-25 13:00:00 17.7 24 Noroeste 40 Noroeste 0 -- -- 38
2019-03-25 12:00:00 16.4 26 Noroeste 39 Noroeste 0 -- -- 42
2019-03-25 11:00:00 15 24 Noroeste 39 Noroeste 0 -- -- 48
2019-03-25 10:00:00 12.9 24 Noroeste 35 Noroeste 0 -- -- 55
2019-03-25 09:00:00 11.2 16 Noroeste 27 Noroeste 0 -- -- 56
2019-03-25 08:00:00 7.8 13 Noroeste 18 Noroeste 0 -- -- 64
2019-03-25 07:00:00 5.5 13 Noroeste 20 Noroeste 0 -- -- 70
2019-03-25 06:00:00 6.9 16 Noroeste 26 Noroeste 0 -- -- 65
2019-03-25 05:00:00 8.2 18 Noroeste 23 Noroeste 0 -- -- 61
2019-03-25 04:00:00 7.8 12 Noroeste 14 Noroeste 0 -- -- 65
2019-03-25 03:00:00 8.4 12 Noroeste 15 Noroeste 0 -- -- 62
2019-03-25 02:00:00 9.4 9 Noroeste 16 Noroeste 0 -- -- 55
2019-03-25 01:00:00 10.3 0 Calma 16 Oeste 0 -- -- 51
2019-03-25 00:00:00 14 15 Oeste 20 Oeste 0 -- -- 39
2019-03-24 23:00:00 15.7 16 Oeste 18 Oeste 0 -- -- 35
2019-03-24 22:00:00 16.2 15 Oeste 21 Oeste 0 -- -- 34
2019-03-24 21:00:00 17.5 14 Oeste 22 Oeste 0 -- -- 31
2019-03-24 20:00:00 18.2 14 Oeste 19 Oeste 0 -- -- 30
2019-03-24 19:00:00 20.5 13 Oeste 15 Oeste 0 -- -- 25
2019-03-24 18:00:00 22.1 6 Oeste 18 Oeste 0 -- -- 23
2019-03-24 17:00:00 23.2 10 Oeste 21 Norte 0 -- -- 22
2019-03-24 16:00:00 22.2 7 Noroeste 25 Noroeste 0 -- -- 24
2019-03-24 15:00:00 22.5 13 Noroeste 24 Oeste 0 -- -- 23
2019-03-24 14:00:00 21.8 10 Norte 17 Nordeste 0 -- -- 27
2019-03-24 13:00:00 20.6 8 Norte 15 Este 0 -- -- 32
2019-03-24 12:00:00 19.4 6 Sudeste 15 Sudeste 0 -- -- 34
2019-03-24 11:00:00 16.8 10 Sudeste 15 Sudeste 0 -- -- 39
2019-03-24 10:00:00 15.9 5 Sudeste 8 Sudeste 0 -- -- 41
2019-03-24 09:00:00 12.6 0 Calma 4 Sudoeste 0 -- -- 44
2019-03-24 08:00:00 8.9 0 Calma 5 Norte 0 -- -- 52
2019-03-24 07:00:00 8.9 0 Calma 8 Oeste 0 -- -- 51
2019-03-24 06:00:00 8.4 5 Sudoeste 9 Noroeste 0 -- -- 53
2019-03-24 05:00:00 8.3 5 Nordeste 6 Nordeste 0 -- -- 56
2019-03-24 04:00:00 9.8 3 Este 6 Norte 0 -- -- 50
2019-03-24 03:00:00 10.5 0 Calma 6 Sudoeste 0 -- -- 48
2019-03-24 02:00:00 10.9 4 Noroeste 11 Nordeste 0 -- -- 46
2019-03-24 01:00:00 13 2 Oeste 6 Sudoeste 0 -- -- 40
2019-03-24 00:00:00 13 0 Calma 13 Noroeste 0 -- -- 41
2019-03-23 23:00:00 12 12 Noroeste 15 Noroeste 0 -- -- 41
2019-03-23 22:00:00 14.4 8 Sudoeste 14 Sudoeste 0 -- -- 35
2019-03-23 21:00:00 15.8 10 Oeste 14 Sudoeste 0 -- -- 34
2019-03-23 20:00:00 17.1 6 Sudoeste 9 Oeste 0 -- -- 31
2019-03-23 19:00:00 20.2 3 Sur 8 Sudeste 0 -- -- 28
2019-03-23 18:00:00 20.7 6 Sur 14 Este 0 -- -- 26
2019-03-23 17:00:00 21.3 6 Este 18 Sur 0 -- -- 22
2019-03-23 16:00:00 21.2 5 Sur 15 Sur 0 -- -- 26
2019-03-23 15:00:00 21.1 7 Sudeste 17 Sudeste 0 -- -- 27
2019-03-23 14:00:00 19.6 10 Nordeste 19 Este 0 -- -- 34
2019-03-23 13:00:00 19.5 5 Sudeste 12 Sur 0 -- -- 34
2019-03-23 12:00:00 17.8 5 Este 13 Sudeste 0 -- -- 38
2019-03-23 11:00:00 15.7 6 Sudeste 13 Sur 0 -- -- 46
2019-03-23 10:00:00 12.7 3 Nordeste 8 Norte 0 -- -- 56
2019-03-23 09:00:00 11 2 Nordeste 5 Sudoeste 0 -- -- 59
2019-03-23 08:00:00 8 4 Sudoeste 5 Sudoeste 0 -- -- 61
2019-03-23 07:00:00 7.9 2 Este 3 Este 0 -- -- 61
2019-03-23 06:00:00 7.6 2 Sudoeste 5 Sudoeste 0 -- -- 62
2019-03-23 05:00:00 7.4 4 Sudoeste 7 Sudoeste 0 -- -- 62
2019-03-23 04:00:00 7.5 3 Sur 7 Este 0 -- -- 61
2019-03-23 03:00:00 9.4 4 Este 6 Este 0 -- -- 56
2019-03-23 02:00:00 9.6 4 Oeste 8 Sudoeste 0 -- -- 56
2019-03-23 01:00:00 9.7 4 Sur 8 Sudoeste 0 -- -- 53
2019-03-23 00:00:00 9.8 0 Calma 10 Norte 0 -- -- 54
2019-03-22 23:00:00 12.1 6 Oeste 14 Noroeste 0 -- -- 47
2019-03-22 22:00:00 13.2 11 Noroeste 14 Noroeste 0 -- -- 43
2019-03-22 21:00:00 14.1 9 Oeste 11 Oeste 0 -- -- 42
2019-03-22 20:00:00 15.6 3 Sudoeste 4 Sudoeste 0 -- -- 39
2019-03-22 19:00:00 17.2 3 Sudeste 12 Este 0 -- -- 36
2019-03-22 18:00:00 18.1 8 Este 15 Este 0 -- -- 35
2019-03-22 17:00:00 18.6 8 Sudeste 17 Este 0 -- -- 32
2019-03-22 16:00:00 18.2 7 Nordeste 20 Sudeste 0 -- -- 31
2019-03-22 15:00:00 18.2 11 Sur 23 Sudeste 0 -- -- 29
2019-03-22 14:00:00 17.1 9 Sudeste 21 Sudeste 0 -- -- 30
2019-03-22 13:00:00 16.7 10 Sur 19 Sudeste 0 -- -- 27
2019-03-22 12:00:00 15.7 8 Sudeste 13 Sudeste 0 -- -- 32
2019-03-22 11:00:00 14 5 Sur 10 Sur 0 -- -- 35
2019-03-22 10:00:00 10 5 Nordeste 9 Nordeste 0 -- -- 48
2019-03-22 09:00:00 7.4 4 Nordeste 9 Noroeste 0 -- -- 54
2019-03-22 08:00:00 6.1 8 Noroeste 12 Noroeste 0 -- -- 54
2019-03-22 07:00:00 4.7 4 Oeste 6 Noroeste 0 -- -- 53
2019-03-22 06:00:00 4.6 0 Calma 5 Norte 0 -- -- 52
2019-03-22 05:00:00 4.3 4 Norte 8 Noroeste 0 -- -- 53
2019-03-22 04:00:00 5.4 0 Calma 6 Este 0 -- -- 50
2019-03-22 03:00:00 5.6 5 Sudeste 8 Sudeste 0 -- -- 47
2019-03-22 02:00:00 5.7 6 Sudoeste 9 Sudoeste 0 -- -- 45
2019-03-22 01:00:00 6.2 3 Sudoeste 6 Sudoeste 0 -- -- 42
2019-03-22 00:00:00 5.4 3 Sudeste 18 Noroeste 0 -- -- 46
2019-03-21 23:00:00 8.1 5 Oeste 13 Oeste 0 -- -- 37
2019-03-21 22:00:00 10.1 11 Oeste 15 Noroeste 0 -- -- 31
2019-03-21 21:00:00 10.7 10 Oeste 12 Oeste 0 -- -- 31
2019-03-21 20:00:00 12 5 Sudoeste 10 Sudoeste 0 -- -- 33
2019-03-21 19:00:00 14.3 5 Este 12 Este 0 -- -- 29
2019-03-21 18:00:00 15.5 7 Sudeste 15 Este 0 -- -- 23
2019-03-21 17:00:00 16 7 Sur 14 Sur 0 -- -- 25
2019-03-21 16:00:00 16.1 6 Sudoeste 19 Sudeste 0 -- -- 27
2019-03-21 15:00:00 16 6 Sur 18 Este 0 -- -- 26
2019-03-21 14:00:00 15.2 5 Sudoeste 18 Sudeste 0 -- -- 34
2019-03-21 13:00:00 13.6 7 Sudeste 17 Sudeste 0 -- -- 42
2019-03-21 12:00:00 12.3 6 Este 16 Este 0 -- -- 46
2019-03-21 11:00:00 10.6 5 Sudeste 12 Este 0 -- -- 52
2019-03-21 10:00:00 9.4 4 Sudeste 9 Sur 0 -- -- 54
2019-03-21 09:00:00 4.7 5 Norte 8 Norte 0 -- -- 73
2019-03-21 08:00:00 4.3 3 Sur 16 Oeste 0 -- -- 68
2019-03-21 07:00:00 2.8 12 Noroeste 17 Noroeste 0 -- -- 75
2019-03-21 06:00:00 2.4 14 Noroeste 18 Noroeste 0 -- -- 74
2019-03-21 05:00:00 3.6 11 Noroeste 15 Oeste 0 -- -- 71
2019-03-21 04:00:00 3.8 12 Noroeste 17 Oeste 0 -- -- 70
2019-03-21 03:00:00 4.2 6 Noroeste 11 Noroeste 0 -- -- 62
2019-03-21 02:00:00 3.6 7 Noroeste 10 Nordeste 0 -- -- 63
2019-03-21 01:00:00 4.7 8 Nordeste 14 Norte 0 -- -- 58
2019-03-21 00:00:00 6 6 Norte 17 Nordeste 0 -- -- 53
2019-03-20 23:00:00 7 11 Norte 20 Oeste 0 -- -- 50
2019-03-20 22:00:00 9.8 15 Oeste 23 Oeste 0 -- -- 39
2019-03-20 21:00:00 10.1 15 Oeste 22 Oeste 0 -- -- 38
2019-03-20 20:00:00 11.5 13 Oeste 28 Oeste 0 -- -- 35
2019-03-20 19:00:00 14.4 11 Sudoeste 20 Sudoeste 0 -- -- 31
2019-03-20 18:00:00 15.4 3 Sudeste 14 Nordeste 0 -- -- 25
2019-03-20 17:00:00 15.2 8 Norte 17 Nordeste 0 -- -- 26
2019-03-20 16:00:00 15.7 4 Noroeste 18 Norte 0 -- -- 29
2019-03-20 15:00:00 15.3 5 Noroeste 22 Sudoeste 0 -- -- 30
2019-03-20 14:00:00 13.9 11 Norte 18 Noroeste 0 -- -- 34
2019-03-20 13:00:00 13.8 9 Noroeste 18 Sudoeste 0 -- -- 35
2019-03-20 12:00:00 12.8 6 Noroeste 12 Norte 0 -- -- 40
2019-03-20 11:00:00 10.6 6 Norte 17 Noroeste 0 -- -- 49
2019-03-20 10:00:00 7.5 5 Norte 10 Noroeste 0 -- -- 59
2019-03-20 09:00:00 4.5 5 Norte 7 Norte 0 -- -- 67
2019-03-20 08:00:00 2.9 0 Calma 5 Nordeste 0 -- -- 64
2019-03-20 07:00:00 1.4 3 Oeste 17 Noroeste 0 -- -- 71
2019-03-20 06:00:00 0.6 16 Noroeste 20 Noroeste 0 -- -- 74
2019-03-20 05:00:00 4.1 14 Noroeste 21 Oeste 0 -- -- 59
2019-03-20 04:00:00 3.1 14 Noroeste 21 Noroeste 0 -- -- 63
2019-03-20 03:00:00 4.7 13 Noroeste 15 Noroeste 0 -- -- 54
2019-03-20 02:00:00 5 12 Noroeste 14 Noroeste 0 -- -- 55
2019-03-20 01:00:00 5.7 12 Noroeste 17 Noroeste 0 -- -- 55
2019-03-20 00:00:00 4.9 12 Noroeste 19 Noroeste 0 -- -- 58
2019-03-19 23:00:00 5.8 18 Noroeste 25 Noroeste 0 -- -- 55
2019-03-19 22:00:00 6.3 19 Noroeste 32 Noroeste 0 -- -- 55
2019-03-19 21:00:00 7.5 21 Noroeste 30 Noroeste 0 -- -- 52
2019-03-19 20:00:00 9 21 Noroeste 27 Noroeste 0 -- -- 46
2019-03-19 19:00:00 11.7 20 Noroeste 40 Norte 0 -- -- 40
2019-03-19 18:00:00 13.9 24 Noroeste 42 Norte 0 -- -- 36
2019-03-19 17:00:00 15 29 Noroeste 43 Noroeste 0 -- -- 34
2019-03-19 16:00:00 15.1 14 Norte 35 Norte 0 -- -- 32
2019-03-19 15:00:00 15.2 14 Norte 26 Oeste 0 -- -- 32
2019-03-19 14:00:00 15.1 12 Norte 29 Noroeste 0 -- -- 33
2019-03-19 13:00:00 14.4 17 Norte 31 Norte 0 -- -- 36
2019-03-19 12:00:00 13.1 20 Norte 34 Noroeste 0 -- -- 40
2019-03-19 11:00:00 11.2 22 Noroeste 35 Norte 0 -- -- 50
2019-03-19 10:00:00 9.1 26 Noroeste 39 Noroeste 0 -- -- 57
2019-03-19 09:00:00 7.4 26 Noroeste 39 Noroeste 0 -- -- 62
2019-03-19 08:00:00 5.1 23 Noroeste 36 Noroeste 0 -- -- 72
2019-03-19 07:00:00 4.5 24 Noroeste 36 Noroeste 0 -- -- 73
2019-03-19 06:00:00 5.3 23 Noroeste 43 Noroeste 0 -- -- 70
2019-03-19 05:00:00 6.3 26 Noroeste 42 Noroeste 0 -- -- 67
2019-03-19 04:00:00 6.3 27 Noroeste 43 Noroeste 0 -- -- 68
2019-03-19 03:00:00 6.7 30 Noroeste 46 Noroeste 0 -- -- 63
2019-03-19 02:00:00 7.3 28 Noroeste 41 Noroeste 0 -- -- 57
2019-03-19 01:00:00 7.5 29 Noroeste 44 Noroeste 0 -- -- 54
2019-03-19 00:00:00 7.8 29 Noroeste 42 Noroeste 0 -- -- 51